createdAt,value
2018-03-26T00:00:17.822Z,97.64
2018-03-26T00:01:17.932Z,97.64
2018-03-26T00:02:17.829Z,97.64
2018-03-26T00:03:17.945Z,97.74
2018-03-26T00:04:17.863Z,97.74
2018-03-26T00:05:17.956Z,97.74
2018-03-26T00:06:17.858Z,97.83
2018-03-26T00:07:17.971Z,97.83
2018-03-26T00:08:17.866Z,97.92
2018-03-26T00:09:17.983Z,97.92
2018-03-26T00:10:17.870Z,97.92
2018-03-26T00:11:17.996Z,97.92
2018-03-26T00:12:17.878Z,98.02
2018-03-26T00:13:17.909Z,98.02
2018-03-26T00:14:17.912Z,98.02
2018-03-26T00:15:17.920Z,98.02
2018-03-26T00:16:17.897Z,98.12
2018-03-26T00:17:17.933Z,98.12
2018-03-26T00:18:17.909Z,98.12
2018-03-26T00:19:18.049Z,98.21
2018-03-26T00:20:17.922Z,98.21
2018-03-26T00:21:17.961Z,98.21
2018-03-26T00:22:17.931Z,98.31
2018-03-26T00:23:17.974Z,98.31
2018-03-26T00:24:17.941Z,98.40
2018-03-26T00:25:17.986Z,98.40
2018-03-26T00:26:17.951Z,98.40
2018-03-26T00:27:18.002Z,98.40
2018-03-26T00:28:17.961Z,98.50
2018-03-26T00:29:18.015Z,98.50
2018-03-26T00:30:17.974Z,98.50
2018-03-26T00:31:18.026Z,98.50
2018-03-26T00:32:17.986Z,98.59
2018-03-26T00:33:18.042Z,98.59
2018-03-26T00:34:17.999Z,98.59
2018-03-26T00:35:18.053Z,98.69
2018-03-26T00:36:18.011Z,98.69
2018-03-26T00:37:18.067Z,98.79
2018-03-26T00:38:18.025Z,98.79
2018-03-26T00:39:18.081Z,98.79
2018-03-26T00:40:18.046Z,98.88
2018-03-26T00:41:18.093Z,98.88
2018-03-26T00:42:18.052Z,98.92
2018-03-26T00:43:18.107Z,98.92
2018-03-26T00:44:18.039Z,98.92
2018-03-26T00:45:18.136Z,99.02
2018-03-26T00:46:18.055Z,99.02
2018-03-26T00:47:18.138Z,99.11
2018-03-26T00:48:18.063Z,99.11
2018-03-26T00:49:18.146Z,99.21
2018-03-26T00:50:18.079Z,99.30
2018-03-26T00:51:18.160Z,99.30
2018-03-26T00:52:18.090Z,99.30
2018-03-26T00:53:18.174Z,99.30
2018-03-26T00:54:18.092Z,99.30
2018-03-26T00:55:18.192Z,99.30
2018-03-26T00:56:18.101Z,99.30
2018-03-26T00:57:18.202Z,99.40
2018-03-26T00:58:18.115Z,99.40
2018-03-26T00:59:18.214Z,99.40
2018-03-26T01:00:18.117Z,99.40
2018-03-26T01:01:18.227Z,99.40
2018-03-26T01:02:18.127Z,99.40
2018-03-26T01:03:18.243Z,99.40
2018-03-26T01:04:18.140Z,99.49
2018-03-26T01:05:18.153Z,99.40
2018-03-26T01:06:18.152Z,99.40
2018-03-26T01:07:18.173Z,99.40
2018-03-26T01:08:18.166Z,99.40
2018-03-26T01:09:18.180Z,99.40
2018-03-26T01:10:18.177Z,99.40
2018-03-26T01:11:18.193Z,99.40
2018-03-26T01:12:18.188Z,99.40
2018-03-26T01:13:18.209Z,99.40
2018-03-26T01:14:18.190Z,99.40
2018-03-26T01:15:18.223Z,99.40
2018-03-26T01:16:18.200Z,99.40
2018-03-26T01:17:18.242Z,99.30
2018-03-26T01:18:18.211Z,99.30
2018-03-26T01:19:18.746Z,99.30
2018-03-26T01:20:18.213Z,99.40
2018-03-26T01:21:18.268Z,99.40
2018-03-26T01:22:18.242Z,99.40
2018-03-26T01:23:18.328Z,99.40
2018-03-26T01:24:18.230Z,99.40
2018-03-26T01:25:18.339Z,99.40
2018-03-26T01:26:18.242Z,99.40
2018-03-26T01:27:18.357Z,99.40
2018-03-26T01:28:18.258Z,99.40
2018-03-26T01:29:18.366Z,99.40
2018-03-26T01:30:18.266Z,99.49
2018-03-26T01:31:18.383Z,99.49
2018-03-26T01:32:18.277Z,99.49
2018-03-26T01:33:18.393Z,99.49
2018-03-26T01:34:18.290Z,99.49
2018-03-26T01:35:18.404Z,99.58
2018-03-26T01:36:18.303Z,99.58
2018-03-26T01:37:18.422Z,99.58
2018-03-26T01:38:18.315Z,99.58
2018-03-26T01:39:18.334Z,99.68
2018-03-26T01:40:18.318Z,99.68
2018-03-26T01:41:18.350Z,99.68
2018-03-26T01:42:18.342Z,99.68
2018-03-26T01:43:18.359Z,99.68
2018-03-26T01:44:18.335Z,99.68
2018-03-26T01:45:18.373Z,99.68
2018-03-26T01:46:18.347Z,99.68
2018-03-26T01:47:18.387Z,99.77
2018-03-26T01:48:18.358Z,99.77
2018-03-26T01:49:18.401Z,99.77
2018-03-26T01:50:18.373Z,99.77
2018-03-26T01:51:18.414Z,99.87
2018-03-26T01:52:18.382Z,99.87
2018-03-26T01:53:18.427Z,99.87
2018-03-26T01:54:18.378Z,99.87
2018-03-26T01:55:18.448Z,99.87
2018-03-26T01:56:18.390Z,99.87
2018-03-26T01:57:18.475Z,99.87
2018-03-26T01:58:18.397Z,99.87
2018-03-26T01:59:18.487Z,99.97
2018-03-26T02:00:18.407Z,99.97
2018-03-26T02:01:18.499Z,99.97
2018-03-26T02:02:18.421Z,99.99
2018-03-26T02:03:18.502Z,99.99
2018-03-26T02:04:18.432Z,99.99
2018-03-26T02:05:18.514Z,99.99
2018-03-26T02:06:18.443Z,99.99
2018-03-26T02:07:18.528Z,99.99
2018-03-26T02:08:18.448Z,99.99
2018-03-26T02:09:18.542Z,99.99
2018-03-26T02:10:18.460Z,99.99
2018-03-26T02:11:18.560Z,99.99
2018-03-26T02:12:18.472Z,99.99
2018-03-26T02:13:18.575Z,99.99
2018-03-26T02:14:18.479Z,99.99
2018-03-26T02:15:18.581Z,99.99
2018-03-26T02:16:18.497Z,99.99
2018-03-26T02:17:18.603Z,99.99
2018-03-26T02:18:18.505Z,99.99
2018-03-26T02:19:18.612Z,99.99
2018-03-26T02:20:18.516Z,99.99
2018-03-26T02:21:18.627Z,99.99
2018-03-26T02:22:18.522Z,99.99
2018-03-26T02:23:33.289Z,99.99
2018-03-26T02:24:18.534Z,99.99
2018-03-26T02:25:18.550Z,99.99
2018-03-26T02:26:18.539Z,99.99
2018-03-26T02:27:18.563Z,99.99
2018-03-26T02:28:18.553Z,99.99
2018-03-26T02:29:18.571Z,99.99
2018-03-26T02:30:18.560Z,99.99
2018-03-26T02:31:18.584Z,99.99
2018-03-26T02:32:18.565Z,99.99
2018-03-26T02:33:18.606Z,99.99
2018-03-26T02:34:18.613Z,99.99
2018-03-26T02:35:18.619Z,99.99
2018-03-26T02:36:18.591Z,99.99
2018-03-26T02:37:18.633Z,99.99
2018-03-26T02:38:18.616Z,99.99
2018-03-26T02:39:18.642Z,99.99
2018-03-26T02:40:18.600Z,99.99
2018-03-26T02:41:18.657Z,99.99
2018-03-26T02:42:18.613Z,99.99
2018-03-26T02:43:18.674Z,99.99
2018-03-26T02:44:18.646Z,99.99
2018-03-26T02:45:18.684Z,99.99
2018-03-26T02:46:18.630Z,99.99
2018-03-26T02:47:18.700Z,99.99
2018-03-26T02:48:18.636Z,99.99
2018-03-26T02:49:18.710Z,99.99
2018-03-26T02:50:18.650Z,99.99
2018-03-26T02:51:18.723Z,99.99
2018-03-26T02:52:19.268Z,99.99
2018-03-26T02:53:18.738Z,99.99
2018-03-26T02:54:18.668Z,99.99
2018-03-26T02:55:18.748Z,99.99
2018-03-26T02:56:18.689Z,99.99
2018-03-26T02:57:18.763Z,99.99
2018-03-26T02:58:18.697Z,99.99
2018-03-26T02:59:18.777Z,99.99
2018-03-26T03:00:18.696Z,99.99
2018-03-26T03:01:18.790Z,99.99
2018-03-26T03:02:18.711Z,99.99
2018-03-26T03:03:18.824Z,99.99
2018-03-26T03:04:18.718Z,99.99
2018-03-26T03:05:18.817Z,99.99
2018-03-26T03:06:18.733Z,99.99
2018-03-26T03:07:18.840Z,99.99
2018-03-26T03:08:18.736Z,99.99
2018-03-26T03:09:18.842Z,99.99
2018-03-26T03:10:18.747Z,99.99
2018-03-26T03:11:18.856Z,99.99
2018-03-26T03:12:18.760Z,99.99
2018-03-26T03:13:18.788Z,99.99
2018-03-26T03:14:18.763Z,99.99
2018-03-26T03:15:18.797Z,99.99
2018-03-26T03:16:18.773Z,99.99
2018-03-26T03:17:18.802Z,99.99
2018-03-26T03:18:18.787Z,99.99
2018-03-26T03:19:18.816Z,99.99
2018-03-26T03:20:18.804Z,99.99
2018-03-26T03:21:18.858Z,99.99
2018-03-26T03:22:18.802Z,99.99
2018-03-26T03:23:18.872Z,99.99
2018-03-26T03:24:18.808Z,99.99
2018-03-26T03:25:19.913Z,99.99
2018-03-26T03:26:18.812Z,99.99
2018-03-26T03:27:18.899Z,99.99
2018-03-26T03:28:18.824Z,99.99
2018-03-26T03:29:18.914Z,99.99
2018-03-26T03:30:18.845Z,99.99
2018-03-26T03:31:19.964Z,99.99
2018-03-26T03:32:18.843Z,99.99
2018-03-26T03:33:19.964Z,99.99
2018-03-26T03:34:18.863Z,99.99
2018-03-26T03:35:18.951Z,99.99
2018-03-26T03:36:18.886Z,99.99
2018-03-26T03:37:18.966Z,99.99
2018-03-26T03:38:18.880Z,99.99
2018-03-26T03:39:18.979Z,99.99
2018-03-26T03:40:18.883Z,99.99
2018-03-26T03:41:18.993Z,99.99
2018-03-26T03:42:18.889Z,99.99
2018-03-26T03:43:19.007Z,99.99
2018-03-26T03:44:18.901Z,99.99
2018-03-26T03:45:19.019Z,99.99
2018-03-26T03:46:18.914Z,99.99
2018-03-26T03:47:19.957Z,99.99
2018-03-26T03:48:18.946Z,99.99
2018-03-26T03:49:19.984Z,99.99
2018-03-26T03:50:18.929Z,99.99
2018-03-26T03:51:18.957Z,99.99
2018-03-26T03:52:18.937Z,99.99
2018-03-26T03:53:18.973Z,99.99
2018-03-26T03:54:18.942Z,99.99
2018-03-26T03:55:18.992Z,99.99
2018-03-26T03:56:18.952Z,99.99
2018-03-26T03:57:19.009Z,99.99
2018-03-26T03:58:18.963Z,99.99
2018-03-26T03:59:19.017Z,99.99
2018-03-26T04:00:18.980Z,99.99
2018-03-26T04:01:19.781Z,99.99
2018-03-26T04:02:18.984Z,99.99
2018-03-26T04:03:20.071Z,99.99
2018-03-26T04:04:19.009Z,99.99
2018-03-26T04:05:19.058Z,99.99
2018-03-26T04:06:18.997Z,99.99
2018-03-26T04:07:19.070Z,99.99
2018-03-26T04:08:19.015Z,99.99
2018-03-26T04:09:19.084Z,99.99
2018-03-26T04:10:19.025Z,99.99
2018-03-26T04:11:19.097Z,99.99
2018-03-26T04:12:19.025Z,99.99
2018-03-26T04:13:19.112Z,99.99
2018-03-26T04:14:19.055Z,99.99
2018-03-26T04:15:19.123Z,99.99
2018-03-26T04:16:19.047Z,99.99
2018-03-26T04:17:19.136Z,99.99
2018-03-26T04:18:19.074Z,99.99
2018-03-26T04:19:19.152Z,99.99
2018-03-26T04:20:19.069Z,99.99
2018-03-26T04:21:19.164Z,99.99
2018-03-26T04:22:19.078Z,99.99
2018-03-26T04:23:19.176Z,99.99
2018-03-26T04:24:19.092Z,99.99
2018-03-26T04:25:19.201Z,99.99
2018-03-26T04:26:19.101Z,99.99
2018-03-26T04:27:19.202Z,99.99
2018-03-26T04:28:19.107Z,99.99
2018-03-26T04:29:19.217Z,99.99
2018-03-26T04:30:19.119Z,99.99
2018-03-26T04:31:19.128Z,99.99
2018-03-26T04:32:19.116Z,99.99
2018-03-26T04:33:19.153Z,99.99
2018-03-26T04:34:19.131Z,99.99
2018-03-26T04:35:19.161Z,99.99
2018-03-26T04:36:19.135Z,99.99
2018-03-26T04:37:19.167Z,99.99
2018-03-26T04:38:19.173Z,99.99
2018-03-26T04:39:19.147Z,99.99
2018-03-26T04:40:19.190Z,99.99
2018-03-26T04:41:19.154Z,99.99
2018-03-26T04:42:19.217Z,99.99
2018-03-26T04:43:19.215Z,99.99
2018-03-26T04:44:20.248Z,99.99
2018-03-26T04:45:19.173Z,99.99
2018-03-26T04:46:19.232Z,99.99
2018-03-26T04:47:19.186Z,99.99
2018-03-26T04:48:19.259Z,99.99
2018-03-26T04:49:19.193Z,99.99
2018-03-26T04:50:19.270Z,99.99
2018-03-26T04:51:19.198Z,99.99
2018-03-26T04:52:19.277Z,99.99
2018-03-26T04:53:19.210Z,99.99
2018-03-26T04:54:19.319Z,99.99
2018-03-26T04:55:19.224Z,99.99
2018-03-26T04:56:19.300Z,99.99
2018-03-26T04:57:19.232Z,99.99
2018-03-26T04:58:19.312Z,99.99
2018-03-26T04:59:19.244Z,99.99
2018-03-26T05:00:19.325Z,99.99
2018-03-26T05:01:19.241Z,99.99
2018-03-26T05:02:19.344Z,99.99
2018-03-26T05:03:19.252Z,99.99
2018-03-26T05:04:19.357Z,99.99
2018-03-26T05:05:19.262Z,99.99
2018-03-26T05:06:20.352Z,99.99
2018-03-26T05:07:19.284Z,99.99
2018-03-26T05:08:19.385Z,99.99
2018-03-26T05:09:19.291Z,99.99
2018-03-26T05:10:20.321Z,99.99
2018-03-26T05:11:19.301Z,99.99
2018-03-26T05:12:19.417Z,99.99
2018-03-26T05:13:19.314Z,99.99
2018-03-26T05:14:19.357Z,99.99
2018-03-26T05:15:19.307Z,99.99
2018-03-26T05:16:19.333Z,99.99
2018-03-26T05:17:19.321Z,99.99
2018-03-26T05:18:19.351Z,99.99
2018-03-26T05:19:19.326Z,99.99
2018-03-26T05:20:19.363Z,99.99
2018-03-26T05:21:19.398Z,99.99
2018-03-26T05:22:19.377Z,99.99
2018-03-26T05:23:19.354Z,99.99
2018-03-26T05:24:19.384Z,99.99
2018-03-26T05:25:19.389Z,99.99
2018-03-26T05:26:19.399Z,99.99
2018-03-26T05:27:19.360Z,99.99
2018-03-26T05:28:19.422Z,99.99
2018-03-26T05:29:19.361Z,99.99
2018-03-26T05:30:19.431Z,99.99
2018-03-26T05:31:19.378Z,99.99
2018-03-26T05:32:19.389Z,99.99
2018-03-26T05:33:19.387Z,99.99
2018-03-26T05:34:19.456Z,99.99
2018-03-26T05:35:19.394Z,99.99
2018-03-26T05:36:19.466Z,99.99
2018-03-26T05:37:19.401Z,99.99
2018-03-26T05:38:20.502Z,99.99
2018-03-26T05:39:19.411Z,99.99
2018-03-26T05:40:19.495Z,99.99
2018-03-26T05:41:19.438Z,99.99
2018-03-26T05:42:19.517Z,99.99
2018-03-26T05:43:19.438Z,99.99
2018-03-26T05:44:19.520Z,99.99
2018-03-26T05:45:19.438Z,99.99
2018-03-26T05:46:19.547Z,99.99
2018-03-26T05:47:19.449Z,99.99
2018-03-26T05:48:19.556Z,99.99
2018-03-26T05:49:19.472Z,99.99
2018-03-26T05:50:19.569Z,99.99
2018-03-26T05:51:19.461Z,99.99
2018-03-26T05:52:19.584Z,99.99
2018-03-26T05:53:19.489Z,99.99
2018-03-26T05:54:19.512Z,99.99
2018-03-26T05:55:19.487Z,99.99
2018-03-26T05:56:19.502Z,99.99
2018-03-26T05:57:19.496Z,99.99
2018-03-26T05:58:19.521Z,99.99
2018-03-26T05:59:19.502Z,99.99
2018-03-26T06:00:20.570Z,99.99
2018-03-26T06:01:19.506Z,99.99
2018-03-26T06:02:19.545Z,99.99
2018-03-26T06:03:19.517Z,99.99
2018-03-26T06:04:19.576Z,99.99
2018-03-26T06:05:19.531Z,99.99
2018-03-26T06:06:19.571Z,99.99
2018-03-26T06:07:19.531Z,99.99
2018-03-26T06:08:20.618Z,99.99
2018-03-26T06:09:19.539Z,99.99
2018-03-26T06:10:19.599Z,99.99
2018-03-26T06:11:19.557Z,99.99
2018-03-26T06:12:19.622Z,99.99
2018-03-26T06:13:19.558Z,99.99
2018-03-26T06:14:20.653Z,99.99
2018-03-26T06:15:19.561Z,99.99
2018-03-26T06:16:19.643Z,99.99
2018-03-26T06:17:19.586Z,99.99
2018-03-26T06:18:19.676Z,99.99
2018-03-26T06:19:19.615Z,99.99
2018-03-26T06:20:19.665Z,99.99
2018-03-26T06:21:19.595Z,99.99
2018-03-26T06:22:19.660Z,99.99
2018-03-26T06:23:19.610Z,99.99
2018-03-26T06:24:19.690Z,99.99
2018-03-26T06:25:19.600Z,99.99
2018-03-26T06:26:19.705Z,99.99
2018-03-26T06:27:19.615Z,99.99
2018-03-26T06:28:19.704Z,99.99
2018-03-26T06:29:19.671Z,99.99
2018-03-26T06:30:19.719Z,99.99
2018-03-26T06:31:19.639Z,99.99
2018-03-26T06:32:19.729Z,99.99
2018-03-26T06:33:19.651Z,99.99
2018-03-26T06:34:19.747Z,99.99
2018-03-26T06:35:19.647Z,99.99
2018-03-26T06:36:19.756Z,99.99
2018-03-26T06:37:19.657Z,99.99
2018-03-26T06:38:19.768Z,99.99
2018-03-26T06:39:19.677Z,99.99
2018-03-26T06:40:19.783Z,99.99
2018-03-26T06:41:19.685Z,99.99
2018-03-26T06:42:19.692Z,99.99
2018-03-26T06:43:19.688Z,99.99
2018-03-26T06:44:19.752Z,99.99
2018-03-26T06:45:20.300Z,99.99
2018-03-26T06:46:19.720Z,99.99
2018-03-26T06:47:19.697Z,99.99
2018-03-26T06:48:19.733Z,99.99
2018-03-26T06:49:19.710Z,99.99
2018-03-26T06:50:19.746Z,99.99
2018-03-26T06:51:19.725Z,99.99
2018-03-26T06:52:19.762Z,99.99
2018-03-26T06:53:19.725Z,99.99
2018-03-26T06:54:19.792Z,99.99
2018-03-26T06:55:19.734Z,99.99
2018-03-26T06:56:19.785Z,99.99
2018-03-26T06:57:19.744Z,99.99
2018-03-26T06:58:19.805Z,99.99
2018-03-26T06:59:19.756Z,99.99
2018-03-26T07:00:19.814Z,99.99
2018-03-26T07:01:19.759Z,99.99
2018-03-26T07:02:19.862Z,99.99
2018-03-26T07:03:19.777Z,99.99
2018-03-26T07:04:19.850Z,99.99
2018-03-26T07:05:19.811Z,99.99
2018-03-26T07:06:19.857Z,99.99
2018-03-26T07:07:19.784Z,99.99
2018-03-26T07:08:19.875Z,99.99
2018-03-26T07:09:19.801Z,99.99
2018-03-26T07:10:19.888Z,99.99
2018-03-26T07:11:19.796Z,99.99
2018-03-26T07:12:19.862Z,99.99
2018-03-26T07:13:19.813Z,99.99
2018-03-26T07:14:19.812Z,99.99
2018-03-26T07:15:19.831Z,99.99
2018-03-26T07:16:19.824Z,99.99
2018-03-26T07:17:19.836Z,99.99
2018-03-26T07:18:19.835Z,99.99
2018-03-26T07:19:19.837Z,99.99
2018-03-26T07:20:19.841Z,99.99
2018-03-26T07:21:19.858Z,99.99
2018-03-26T07:22:19.845Z,99.99
2018-03-26T07:23:19.854Z,99.99
2018-03-26T07:24:19.856Z,99.99
2018-03-26T07:25:19.865Z,99.99
2018-03-26T07:26:19.874Z,99.99
2018-03-26T07:27:19.865Z,99.99
2018-03-26T07:28:19.883Z,99.99
2018-03-26T07:29:19.992Z,99.99
2018-03-26T07:30:19.919Z,99.99
2018-03-26T07:31:19.886Z,99.99
2018-03-26T07:32:20.004Z,99.99
2018-03-26T07:33:19.900Z,99.99
2018-03-26T07:34:19.916Z,99.99
2018-03-26T07:35:19.920Z,99.99
2018-03-26T07:36:19.932Z,99.99
2018-03-26T07:37:19.916Z,99.99
2018-03-26T07:38:19.928Z,99.99
2018-03-26T07:39:19.923Z,99.99
2018-03-26T07:40:20.225Z,99.99
2018-03-26T07:41:19.952Z,99.99
2018-03-26T07:42:19.932Z,99.99
2018-03-26T07:43:19.970Z,99.99
2018-03-26T07:44:19.944Z,99.99
2018-03-26T07:45:20.086Z,99.99
2018-03-26T07:46:19.952Z,99.99
2018-03-26T07:47:19.960Z,99.99
2018-03-26T07:48:19.970Z,99.99
2018-03-26T07:49:21.031Z,99.99
2018-03-26T07:50:19.975Z,99.99
2018-03-26T07:51:20.021Z,99.99
2018-03-26T07:52:19.974Z,99.99
2018-03-26T07:53:20.036Z,99.99
2018-03-26T07:54:19.988Z,99.99
2018-03-26T07:55:19.993Z,99.99
2018-03-26T07:56:20.052Z,99.99
2018-03-26T07:57:20.008Z,99.99
2018-03-26T07:58:20.004Z,99.99
2018-03-26T07:59:20.018Z,99.99
2018-03-26T08:00:20.081Z,99.99
2018-03-26T08:01:20.020Z,99.99
2018-03-26T08:02:20.101Z,99.99
2018-03-26T08:03:20.029Z,99.99
2018-03-26T08:04:20.108Z,99.99
2018-03-26T08:05:20.032Z,99.99
2018-03-26T08:06:20.051Z,99.99
2018-03-26T08:07:20.045Z,99.99
2018-03-26T08:08:20.141Z,99.99
2018-03-26T08:09:20.112Z,99.99
2018-03-26T08:10:20.156Z,99.99
2018-03-26T08:11:20.078Z,99.99
2018-03-26T08:12:21.069Z,99.99
2018-03-26T08:13:20.069Z,99.99
2018-03-26T08:14:20.078Z,99.99
2018-03-26T08:15:20.191Z,99.99
2018-03-26T08:16:20.082Z,99.99
2018-03-26T08:17:20.104Z,99.99
2018-03-26T08:18:20.094Z,99.99
2018-03-26T08:19:20.116Z,99.99
2018-03-26T08:20:20.109Z,99.99
2018-03-26T08:21:20.134Z,99.99
2018-03-26T08:22:20.110Z,99.99
2018-03-26T08:23:20.143Z,99.99
2018-03-26T08:24:20.119Z,99.99
2018-03-26T08:25:20.157Z,99.99
2018-03-26T08:26:20.129Z,99.99
2018-03-26T08:27:20.166Z,99.99
2018-03-26T08:28:20.136Z,99.99
2018-03-26T08:29:20.187Z,99.99
2018-03-26T08:30:20.158Z,99.99
2018-03-26T08:31:20.202Z,99.99
2018-03-26T08:32:20.160Z,99.99
2018-03-26T08:33:20.222Z,99.99
2018-03-26T08:34:20.176Z,99.99
2018-03-26T08:35:20.227Z,99.99
2018-03-26T08:36:20.202Z,99.99
2018-03-26T08:37:20.185Z,99.99
2018-03-26T08:38:20.243Z,99.99
2018-03-26T08:39:20.189Z,99.99
2018-03-26T08:40:20.263Z,99.99
2018-03-26T08:41:20.196Z,99.99
2018-03-26T08:42:20.365Z,99.99
2018-03-26T08:43:20.210Z,99.91
2018-03-26T08:44:20.288Z,99.91
2018-03-26T08:45:20.224Z,99.97
2018-03-26T08:46:20.303Z,99.97
2018-03-26T08:47:20.235Z,99.87
2018-03-26T08:48:20.330Z,99.87
2018-03-26T08:49:20.242Z,99.77
2018-03-26T08:50:21.421Z,99.68
2018-03-26T08:51:20.270Z,99.68
2018-03-26T08:52:20.354Z,99.68
2018-03-26T08:53:23.094Z,99.68
2018-03-26T08:54:20.363Z,99.68
2018-03-26T08:55:20.278Z,99.77
2018-03-26T08:56:20.431Z,99.77
2018-03-26T08:57:20.294Z,99.77
2018-03-26T08:58:20.407Z,99.87
2018-03-26T08:59:20.342Z,99.77
2018-03-26T09:00:21.315Z,99.77
2018-03-26T09:01:20.319Z,99.68
2018-03-26T09:02:20.407Z,99.58
2018-03-26T09:03:20.324Z,99.49
2018-03-26T09:04:20.433Z,99.40
2018-03-26T09:05:20.342Z,99.30
2018-03-26T09:06:20.455Z,99.21
2018-03-26T09:07:20.348Z,99.30
2018-03-26T09:08:20.399Z,99.30
2018-03-26T09:09:20.381Z,99.21
2018-03-26T09:10:20.417Z,99.30
2018-03-26T09:11:20.401Z,99.30
2018-03-26T09:12:20.429Z,99.30
2018-03-26T09:13:20.392Z,99.30
2018-03-26T09:14:20.434Z,99.40
2018-03-26T09:15:20.402Z,99.40
2018-03-26T09:16:20.462Z,99.49
2018-03-26T09:17:20.426Z,99.49
2018-03-26T09:18:20.429Z,99.49
2018-03-26T09:19:20.424Z,99.58
2018-03-26T09:20:20.483Z,99.58
2018-03-26T09:21:20.441Z,99.58
2018-03-26T09:22:20.502Z,99.58
2018-03-26T09:23:20.453Z,99.49
2018-03-26T09:24:20.516Z,99.49
2018-03-26T09:25:20.463Z,99.49
2018-03-26T09:26:20.532Z,99.58
2018-03-26T09:27:20.484Z,99.58
2018-03-26T09:28:20.548Z,99.58
2018-03-26T09:29:20.489Z,99.68
2018-03-26T09:30:20.549Z,99.68
2018-03-26T09:31:20.502Z,99.77
2018-03-26T09:32:20.560Z,99.68
2018-03-26T09:33:20.510Z,99.49
2018-03-26T09:34:20.580Z,99.40
2018-03-26T09:35:20.534Z,99.35
2018-03-26T09:36:20.594Z,99.35
2018-03-26T09:37:20.540Z,99.26
2018-03-26T09:38:20.552Z,99.26
2018-03-26T09:39:20.568Z,99.26
2018-03-26T09:40:20.562Z,99.26
2018-03-26T09:41:20.576Z,99.35
2018-03-26T09:42:20.579Z,99.26
2018-03-26T09:43:20.611Z,99.16
2018-03-26T09:44:20.644Z,98.97
2018-03-26T09:45:20.602Z,98.88
2018-03-26T09:46:20.609Z,98.88
2018-03-26T09:47:20.616Z,98.88
2018-03-26T09:48:20.626Z,98.79
2018-03-26T09:49:20.677Z,98.79
2018-03-26T09:50:20.625Z,98.88
2018-03-26T09:51:20.632Z,98.88
2018-03-26T09:52:20.648Z,98.79
2018-03-26T09:53:20.655Z,98.69
2018-03-26T09:54:20.658Z,98.79
2018-03-26T09:55:20.666Z,98.79
2018-03-26T09:56:20.669Z,98.88
2018-03-26T09:57:20.682Z,98.88
2018-03-26T09:58:20.678Z,98.97
2018-03-26T09:59:20.692Z,98.97
2018-03-26T10:00:20.705Z,98.88
2018-03-26T10:01:20.710Z,98.74
2018-03-26T10:02:20.712Z,98.64
2018-03-26T10:03:20.723Z,98.45
2018-03-26T10:04:20.719Z,98.36
2018-03-26T10:05:20.724Z,98.17
2018-03-26T10:06:20.732Z,97.97
2018-03-26T10:07:20.733Z,98.07
2018-03-26T10:08:20.772Z,98.07
2018-03-26T10:09:20.755Z,98.07
2018-03-26T10:10:20.753Z,98.17
2018-03-26T10:11:20.766Z,98.17
2018-03-26T10:12:20.836Z,98.17
2018-03-26T10:13:20.789Z,98.26
2018-03-26T10:14:20.800Z,98.26
2018-03-26T10:15:20.808Z,98.17
2018-03-26T10:16:20.797Z,98.07
2018-03-26T10:17:20.803Z,97.97
2018-03-26T10:18:20.819Z,97.88
2018-03-26T10:19:20.817Z,97.69
2018-03-26T10:20:20.826Z,97.60
2018-03-26T10:21:20.831Z,97.60
2018-03-26T10:22:20.901Z,97.50
2018-03-26T10:23:20.844Z,97.50
2018-03-26T10:24:20.918Z,97.45
2018-03-26T10:25:20.857Z,97.45
2018-03-26T10:26:20.869Z,97.55
2018-03-26T10:27:20.872Z,97.55
2018-03-26T10:28:20.880Z,96.89
2018-03-26T10:29:20.885Z,96.50
2018-03-26T10:30:20.898Z,96.41
2018-03-26T10:31:20.898Z,96.41
2018-03-26T10:32:20.913Z,96.12
2018-03-26T10:33:20.910Z,95.84
2018-03-26T10:34:20.932Z,95.56
2018-03-26T10:35:20.924Z,95.65
2018-03-26T10:36:20.930Z,95.84
2018-03-26T10:37:20.935Z,95.94
2018-03-26T10:38:20.958Z,95.08
2018-03-26T10:39:20.948Z,93.94
2018-03-26T10:40:20.962Z,93.55
2018-03-26T10:41:20.964Z,93.65
2018-03-26T10:42:22.061Z,93.84
2018-03-26T10:43:20.976Z,94.13
2018-03-26T10:44:21.001Z,94.42
2018-03-26T10:45:21.005Z,94.22
2018-03-26T10:46:20.999Z,93.84
2018-03-26T10:47:21.069Z,93.79
2018-03-26T10:48:21.024Z,93.60
2018-03-26T10:49:21.088Z,93.41
2018-03-26T10:50:21.131Z,93.04
2018-03-26T10:51:21.049Z,92.84
2018-03-26T10:52:21.036Z,92.84
2018-03-26T10:53:21.041Z,92.84
2018-03-26T10:54:21.053Z,92.84
2018-03-26T10:55:21.056Z,92.84
2018-03-26T10:56:21.107Z,92.75
2018-03-26T10:57:21.141Z,92.46
2018-03-26T10:58:21.077Z,92.27
2018-03-26T10:59:21.152Z,92.18
2018-03-26T11:00:21.142Z,92.27
2018-03-26T11:01:21.101Z,92.51
2018-03-26T11:02:21.114Z,92.51
2018-03-26T11:03:21.151Z,92.70
2018-03-26T11:04:21.135Z,92.70
2018-03-26T11:05:21.138Z,92.51
2018-03-26T11:06:21.138Z,92.03
2018-03-26T11:07:21.147Z,91.94
2018-03-26T11:08:21.152Z,92.13
2018-03-26T11:09:21.163Z,91.94
2018-03-26T11:10:21.172Z,91.37
2018-03-26T11:11:21.176Z,91.27
2018-03-26T11:12:21.204Z,91.46
2018-03-26T11:13:21.189Z,90.70
2018-03-26T11:14:21.207Z,90.42
2018-03-26T11:15:21.211Z,90.32
2018-03-26T11:16:21.210Z,90.51
2018-03-26T11:17:21.219Z,90.80
2018-03-26T11:18:21.283Z,91.17
2018-03-26T11:19:21.230Z,91.56
2018-03-26T11:20:21.331Z,91.56
2018-03-26T11:21:21.244Z,91.17
2018-03-26T11:22:21.311Z,90.80
2018-03-26T11:23:21.259Z,90.89
2018-03-26T11:24:21.342Z,90.89
2018-03-26T11:25:21.278Z,91.08
2018-03-26T11:26:21.338Z,91.37
2018-03-26T11:27:21.287Z,91.65
2018-03-26T11:28:21.318Z,92.03
2018-03-26T11:29:21.302Z,92.22
2018-03-26T11:30:21.311Z,92.22
2018-03-26T11:31:21.368Z,92.22
2018-03-26T11:32:21.325Z,92.22
2018-03-26T11:33:21.387Z,91.94
2018-03-26T11:34:21.340Z,91.94
2018-03-26T11:35:21.348Z,91.94
2018-03-26T11:36:21.372Z,91.94
2018-03-26T11:37:21.396Z,92.13
2018-03-26T11:38:21.370Z,92.03
2018-03-26T11:39:21.388Z,92.32
2018-03-26T11:40:21.395Z,91.99
2018-03-26T11:41:21.403Z,91.42
2018-03-26T11:42:21.418Z,91.42
2018-03-26T11:43:21.428Z,91.32
2018-03-26T11:44:21.419Z,91.13
2018-03-26T11:45:21.429Z,90.89
2018-03-26T11:46:21.450Z,90.70
2018-03-26T11:47:21.449Z,90.56
2018-03-26T11:48:21.450Z,90.70
2018-03-26T11:49:21.453Z,90.32
2018-03-26T11:50:21.475Z,89.75
2018-03-26T11:51:21.465Z,89.47
2018-03-26T11:52:21.476Z,89.65
2018-03-26T11:53:21.497Z,89.94
2018-03-26T11:54:21.490Z,89.75
2018-03-26T11:55:21.495Z,89.61
2018-03-26T11:56:21.512Z,88.85
2018-03-26T11:57:21.525Z,88.85
2018-03-26T11:58:21.580Z,88.94
2018-03-26T11:59:21.558Z,88.56
2018-03-26T12:00:21.625Z,88.56
2018-03-26T12:01:21.615Z,88.85
2018-03-26T12:02:21.645Z,89.04
2018-03-26T12:03:21.569Z,89.23
2018-03-26T12:04:21.573Z,89.61
2018-03-26T12:05:21.577Z,89.89
2018-03-26T12:06:21.585Z,89.89
2018-03-26T12:07:21.602Z,89.70
2018-03-26T12:08:21.608Z,89.70
2018-03-26T12:09:21.619Z,89.94
2018-03-26T12:10:21.617Z,89.84
2018-03-26T12:11:21.707Z,90.03
2018-03-26T12:12:21.640Z,90.13
2018-03-26T12:13:21.638Z,90.22
2018-03-26T12:14:21.654Z,89.94
2018-03-26T12:15:21.652Z,89.94
2018-03-26T12:16:21.959Z,90.03
2018-03-26T12:17:21.751Z,90.17
2018-03-26T12:18:21.683Z,90.36
2018-03-26T12:19:21.763Z,90.46
2018-03-26T12:20:21.728Z,90.46
2018-03-26T12:21:21.697Z,90.56
2018-03-26T12:22:21.706Z,90.56
2018-03-26T12:23:21.811Z,90.75
2018-03-26T12:24:22.024Z,90.94
2018-03-26T12:25:21.800Z,90.75
2018-03-26T12:26:21.756Z,90.56
2018-03-26T12:27:21.813Z,90.65
2018-03-26T12:28:21.769Z,90.65
2018-03-26T12:29:21.774Z,90.65
2018-03-26T12:30:21.771Z,90.65
2018-03-26T12:31:21.787Z,90.94
2018-03-26T12:32:21.792Z,91.13
2018-03-26T12:33:21.862Z,90.17
2018-03-26T12:34:21.823Z,90.08
2018-03-26T12:35:22.176Z,90.36
2018-03-26T12:36:21.824Z,90.56
2018-03-26T12:37:21.875Z,90.84
2018-03-26T12:38:21.837Z,91.13
2018-03-26T12:39:21.897Z,91.31
2018-03-26T12:40:21.862Z,91.31
2018-03-26T12:41:21.907Z,91.27
2018-03-26T12:42:21.879Z,91.17
2018-03-26T12:43:21.928Z,91.27
2018-03-26T12:44:21.886Z,90.98
2018-03-26T12:45:21.935Z,90.89
2018-03-26T12:46:21.899Z,91.08
2018-03-26T12:47:21.909Z,91.17
2018-03-26T12:48:21.960Z,91.46
2018-03-26T12:49:21.923Z,91.55
2018-03-26T12:50:21.966Z,91.74
2018-03-26T12:51:21.940Z,91.55
2018-03-26T12:52:21.983Z,91.17